Time;durP1;ratioP1;P1;durP2;ratioP2;P2;SDS_P1;SDS_P2;PMS_P1;PMS_P2;Temp;Humidity;BMP_temperature;BMP_pressure;BME280_temperature;BME280_humidity;BME280_pressure;Samples;Min_cycle;Max_cycle;Signal;HPM_P1;HPM_P2
2022/05/16 00:01:44;;;;;;;5.57;3.20;;;20.90;46.80;;;;;;5074994;28;20168;-86
2022/05/16 00:04:10;;;;;;;5.67;3.43;;;20.90;46.80;;;;;;5075706;28;20423;-88
2022/05/16 00:06:36;;;;;;;6.40;3.70;;;20.90;46.90;;;;;;5075259;28;20659;-86
2022/05/16 00:09:02;;;;;;;5.13;3.07;;;20.90;46.90;;;;;;5065116;28;20426;-87
2022/05/16 00:11:28;;;;;;;4.33;3.60;;;20.80;47.00;;;;;;5074015;28;20426;-87
2022/05/16 00:13:53;;;;;;;3.93;2.97;;;20.80;47.00;;;;;;5069670;28;20427;-87
2022/05/16 00:16:19;;;;;;;5.20;3.50;;;20.80;46.90;;;;;;5051061;28;20791;-86
2022/05/16 00:18:45;;;;;;;4.40;2.70;;;20.80;47.60;;;;;;5074901;28;20197;-87
2022/05/16 00:21:11;;;;;;;5.23;3.60;;;20.70;48.10;;;;;;5071166;28;20180;-87
2022/05/16 00:23:37;;;;;;;4.77;3.13;;;20.70;48.10;;;;;;5074784;28;20420;-87
2022/05/16 00:26:03;;;;;;;3.60;2.90;;;20.70;48.10;;;;;;5088238;28;20192;-87
2022/05/16 00:28:29;;;;;;;3.83;3.10;;;20.60;48.00;;;;;;5070257;28;20188;-86
2022/05/16 00:30:54;;;;;;;6.13;3.27;;;20.60;48.00;;;;;;5064652;28;20439;-86
2022/05/16 00:33:20;;;;;;;7.90;3.10;;;20.60;48.30;;;;;;5074324;28;20216;-86
2022/05/16 00:35:46;;;;;;;9.97;3.70;;;20.60;48.60;;;;;;5083135;28;20458;-86
2022/05/16 00:38:12;;;;;;;4.60;3.30;;;20.60;48.70;;;;;;5085535;28;20200;-86
2022/05/16 00:40:38;;;;;;;9.30;2.93;;;20.50;49.30;;;;;;5065168;28;20243;-86
2022/05/16 00:43:06;;;;;;;5.07;3.53;;;20.40;48.80;;;;;;5058769;28;20645;-86
2022/05/16 00:45:32;;;;;;;5.28;3.70;;;20.50;48.70;;;;;;5068022;28;20913;-85
2022/05/16 00:47:58;;;;;;;4.90;3.22;;;20.50;48.80;;;;;;5054591;28;20274;-85
2022/05/16 00:50:25;;;;;;;5.97;3.50;;;20.50;49.30;;;;;;5061464;28;20961;-86
2022/05/16 00:52:51;;;;;;;5.15;2.75;;;20.40;49.10;;;;;;5054272;28;20200;-86
2022/05/16 00:55:26;;;;;;;4.55;3.25;;;20.40;49.00;;;;;;5073093;28;20188;-86
2022/05/16 00:57:56;;;;;;;6.17;3.50;;;20.30;49.40;;;;;;5053235;28;20200;-85
2022/05/16 01:00:26;;;;;;;5.87;3.50;;;20.20;49.70;;;;;;5069936;28;20539;-85
2022/05/16 01:05:47;;;;;;;8.38;3.45;;;20.30;49.70;;;;;;5055243;28;20415;-85
2022/05/16 01:08:22;;;;;;;3.53;3.23;;;20.20;50.10;;;;;;5055837;28;20200;-85
2022/05/16 01:10:48;;;;;;;6.53;3.60;;;20.20;49.70;;;;;;5059238;28;20164;-84
2022/05/16 01:13:14;;;;;;;5.70;3.43;;;20.20;49.70;;;;;;5065729;28;20416;-85
2022/05/16 01:15:48;;;;;;;7.25;3.95;;;20.20;49.60;;;;;;5070558;28;20906;-85
2022/05/16 01:18:17;;;;;;;4.57;3.20;;;20.10;49.90;;;;;;5052649;28;20224;-85
2022/05/16 01:21:09;;;;;;;3.90;3.30;;;20.10;49.80;;;;;;5053325;28;20263;-85
2022/05/16 01:23:55;;;;;;;5.63;2.90;;;20.10;50.00;;;;;;5060391;28;20189;-85
2022/05/16 01:26:25;;;;;;;3.70;3.40;;;20.10;50.00;;;;;;5062146;28;20565;-85
2022/05/16 01:28:52;;;;;;;7.53;3.60;;;20.10;50.40;;;;;;5061447;28;20679;-84
2022/05/16 01:31:18;;;;;;;3.60;3.28;;;20.00;50.40;;;;;;5060364;28;20183;-85
2022/05/16 01:33:43;;;;;;;7.60;3.70;;;20.00;50.20;;;;;;5059686;28;20626;-85
2022/05/16 01:36:10;;;;;;;4.73;3.30;;;20.10;50.00;;;;;;5054830;28;20177;-85
2022/05/16 01:38:35;;;;;;;3.58;3.20;;;20.00;50.40;;;;;;5055837;28;20687;-85
2022/05/16 01:41:04;;;;;;;3.63;3.33;;;20.00;50.60;;;;;;5072466;28;20188;-85
2022/05/16 01:43:33;;;;;;;4.00;3.20;;;19.90;51.20;;;;;;5062492;28;20426;-86
2022/05/16 01:45:59;;;;;;;4.10;3.10;;;19.90;51.50;;;;;;5062995;28;20276;-85
2022/05/16 01:48:29;;;;;;;4.10;3.30;;;19.90;51.30;;;;;;5066699;28;20204;-86
2022/05/16 01:50:59;;;;;;;5.90;4.20;;;19.90;51.20;;;;;;5064994;28;20418;-85
2022/05/16 01:53:25;;;;;;;7.68;4.32;;;19.80;51.70;;;;;;5059523;28;20643;-85
2022/05/16 01:55:51;;;;;;;12.10;3.47;;;19.80;52.00;;;;;;5063050;28;20172;-85
2022/05/16 01:58:17;;;;;;;6.37;3.37;;;19.80;51.60;;;;;;5062311;28;20496;-86
2022/05/16 02:00:42;;;;;;;5.53;3.50;;;19.80;51.40;;;;;;5073433;28;20168;-87
2022/05/16 02:03:10;;;;;;;6.40;3.57;;;19.80;51.60;;;;;;5076100;28;20175;-85
2022/05/16 02:05:36;;;;;;;5.03;3.42;;;19.80;51.70;;;;;;5076692;28;20422;-86
2022/05/16 02:08:02;;;;;;;6.43;3.80;;;19.80;52.90;;;;;;5082483;28;20216;-86
2022/05/16 02:10:29;;;;;;;5.22;3.45;;;19.70;52.70;;;;;;5088592;28;20185;-87
2022/05/16 02:12:59;;;;;;;5.00;3.63;;;19.70;52.70;;;;;;5082120;28;20177;-86
2022/05/16 02:15:27;;;;;;;4.63;3.40;;;19.80;52.00;;;;;;5084128;28;20194;-87
2022/05/16 02:17:53;;;;;;;5.68;3.58;;;19.80;52.20;;;;;;5096644;28;20184;-86
2022/05/16 02:20:21;;;;;;;4.00;3.40;;;19.70;53.50;;;;;;5085408;28;20886;-86
2022/05/16 02:25:37;;;;;;;4.82;3.67;;;19.60;53.90;;;;;;5085091;28;20975;-87
2022/05/16 02:28:09;;;;;;;3.83;3.45;;;19.70;53.30;;;;;;5084446;28;20267;-87
2022/05/16 02:30:36;;;;;;;4.03;3.63;;;19.60;53.60;;;;;;5074859;28;20715;-86
2022/05/16 02:33:03;;;;;;;7.75;3.60;;;19.60;53.40;;;;;;5060050;28;20193;-86
2022/05/16 02:35:32;;;;;;;4.80;4.13;;;19.60;53.20;;;;;;5068605;28;20176;-86
2022/05/16 02:37:58;;;;;;;3.35;3.03;;;19.70;53.20;;;;;;5068386;28;20444;-83
2022/05/16 02:40:26;;;;;;;4.10;3.40;;;19.70;53.30;;;;;;5065091;28;20251;-84
2022/05/16 02:42:52;;;;;;;4.82;3.10;;;19.60;54.00;;;;;;5067931;28;20418;-85
2022/05/16 02:45:18;;;;;;;3.23;2.97;;;19.60;53.70;;;;;;5063917;28;20184;-85
2022/05/16 02:47:44;;;;;;;7.43;3.90;;;19.50;53.90;;;;;;5060018;28;20453;-86
2022/05/16 02:50:10;;;;;;;6.13;4.17;;;19.60;54.00;;;;;;5079987;28;20247;-86
2022/05/16 02:52:36;;;;;;;7.45;3.50;;;19.60;53.60;;;;;;5063597;28;20461;-86
2022/05/16 02:55:03;;;;;;;4.07;3.40;;;19.60;54.00;;;;;;5077350;28;20785;-86
2022/05/16 02:57:30;;;;;;;3.80;3.35;;;19.60;54.60;;;;;;5065871;28;20200;-87
2022/05/16 02:59:56;;;;;;;4.07;3.30;;;19.60;54.40;;;;;;5081349;28;20226;-87
2022/05/16 03:02:22;;;;;;;4.93;3.80;;;19.60;54.50;;;;;;5077805;28;20857;-86
2022/05/16 03:04:48;;;;;;;5.50;3.53;;;19.60;54.90;;;;;;5064863;28;20245;-86
2022/05/16 03:07:14;;;;;;;7.07;3.90;;;19.60;54.40;;;;;;5084158;22;20693;-87
2022/05/16 03:09:40;;;;;;;3.83;3.43;;;19.50;54.60;;;;;;5079672;28;20229;-87
2022/05/16 03:12:07;;;;;;;5.20;3.00;;;19.40;55.40;;;;;;5078921;28;20180;-87
2022/05/16 03:14:35;;;;;;;4.55;3.58;;;19.40;55.60;;;;;;5097039;28;20410;-87
2022/05/16 03:17:02;;;;;;;3.85;3.45;;;19.40;56.10;;;;;;5104226;28;20203;-87
2022/05/16 03:19:28;;;;;;;7.80;3.83;;;19.40;56.60;;;;;;5063690;28;20215;-87
2022/05/16 03:21:54;;;;;;;6.47;3.75;;;19.30;57.50;;;;;;5099196;28;20206;-88
2022/05/16 03:24:21;;;;;;;3.83;3.10;;;19.40;58.20;;;;;;5091029;28;20198;-87
2022/05/16 03:26:48;;;;;;;7.57;3.72;;;19.40;57.70;;;;;;5079446;28;20430;-87
2022/05/16 03:29:14;;;;;;;8.10;3.73;;;19.40;57.40;;;;;;5081384;28;20191;-87
2022/05/16 03:31:43;;;;;;;5.17;4.00;;;19.40;57.00;;;;;;5096945;28;20514;-89
2022/05/16 03:34:10;;;;;;;7.95;3.83;;;19.50;56.50;;;;;;5095903;28;20175;-89
2022/05/16 03:36:36;;;;;;;4.25;3.83;;;19.60;56.30;;;;;;5074604;28;20236;-90
2022/05/16 03:41:48;;;;;;;5.85;3.90;;;19.60;56.60;;;;;;5106807;28;20189;-89
2022/05/16 03:44:14;;;;;;;4.67;3.83;;;19.60;57.30;;;;;;5093438;28;20172;-90
2022/05/16 03:46:40;;;;;;;4.20;3.80;;;19.50;57.80;;;;;;5101510;28;20437;-89
2022/05/16 03:49:06;;;;;;;4.70;3.17;;;19.60;56.90;;;;;;5090395;28;20517;-88
2022/05/16 03:51:33;;;;;;;10.18;4.20;;;19.60;56.90;;;;;;5085503;28;20846;-88
2022/05/16 03:53:59;;;;;;;5.72;3.95;;;19.70;56.70;;;;;;5090066;28;20191;-89
2022/05/16 03:56:27;;;;;;;6.20;3.63;;;19.60;56.70;;;;;;5070248;28;20204;-89
2022/05/16 03:58:55;;;;;;;4.38;3.83;;;19.60;57.80;;;;;;5099159;28;20237;-89
2022/05/16 04:01:22;;;;;;;4.78;4.10;;;19.70;57.70;;;;;;5105028;28;20593;-90
2022/05/16 04:03:49;;;;;;;6.35;4.68;;;19.70;57.60;;;;;;5069206;28;20180;-88
2022/05/16 04:06:15;;;;;;;5.55;3.95;;;19.80;57.00;;;;;;5092316;28;20267;-89
2022/05/16 04:08:42;;;;;;;9.25;5.43;;;19.90;56.40;;;;;;5098456;28;20179;-88
2022/05/16 04:11:08;;;;;;;3.95;3.42;;;20.00;56.70;;;;;;5090705;28;20180;-89
2022/05/16 04:13:35;;;;;;;5.97;4.28;;;20.00;56.00;;;;;;5084410;28;20175;-89
2022/05/16 04:16:00;;;;;;;7.03;4.83;;;20.00;55.90;;;;;;5098825;28;20196;-89
2022/05/16 04:18:27;;;;;;;6.57;4.23;;;20.10;55.50;;;;;;5106824;28;20429;-89
2022/05/16 04:20:52;;;;;;;3.70;3.27;;;20.20;55.30;;;;;;5102885;28;20187;-88
2022/05/16 04:23:18;;;;;;;6.07;4.33;;;20.20;55.20;;;;;;5098300;28;20590;-88
2022/05/16 04:25:44;;;;;;;3.83;3.50;;;20.20;55.90;;;;;;5088560;28;20188;-89
2022/05/16 04:28:11;;;;;;;4.73;4.10;;;20.10;55.70;;;;;;5099863;28;20506;-89
2022/05/16 04:30:38;;;;;;;7.65;4.80;;;20.10;56.00;;;;;;5097974;28;20795;-87
2022/05/16 04:33:06;;;;;;;10.07;4.65;;;20.00;56.30;;;;;;5098429;28;20192;-88
2022/05/16 04:35:32;;;;;;;7.20;3.78;;;20.00;56.50;;;;;;5098777;28;20264;-87
2022/05/16 04:37:58;;;;;;;8.13;4.17;;;20.00;56.90;;;;;;5116245;28;20195;-88
2022/05/16 04:40:24;;;;;;;7.47;4.83;;;20.10;56.60;;;;;;5085206;28;20461;-88
2022/05/16 04:42:50;;;;;;;5.00;4.47;;;20.10;56.70;;;;;;5116614;28;20167;-87
2022/05/16 04:45:28;;;;;;;6.90;4.43;;;20.00;56.60;;;;;;5088283;28;20454;-88
2022/05/16 04:47:57;;;;;;;5.20;3.80;;;19.90;57.10;;;;;;5111986;28;20202;-88
2022/05/16 04:50:27;;;;;;;4.55;4.15;;;19.80;58.00;;;;;;5085344;28;20464;-88
2022/05/16 04:52:53;;;;;;;7.28;4.35;;;19.80;58.80;;;;;;5100169;28;20644;-89
2022/05/16 04:55:20;;;;;;;6.82;4.30;;;19.70;59.80;;;;;;5093794;28;20192;-87
2022/05/16 04:57:46;;;;;;;4.63;3.95;;;19.90;59.00;;;;;;5107387;28;20199;-87
2022/05/16 05:00:13;;;;;;;4.97;3.80;;;19.90;59.50;;;;;;5084591;28;20248;-88
2022/05/16 05:02:40;;;;;;;8.17;4.70;;;19.80;59.70;;;;;;5091465;28;20199;-89
2022/05/16 05:05:08;;;;;;;7.50;4.20;;;19.80;60.60;;;;;;5094946;28;20423;-89
2022/05/16 05:07:36;;;;;;;7.20;4.47;;;19.80;62.00;;;;;;5111978;28;20461;-88
2022/05/16 05:15:31;;;;;;;5.82;4.20;;;19.80;61.40;;;;;;5107930;28;20313;-88
2022/05/16 05:17:57;;;;;;;5.50;4.30;;;19.80;61.10;;;;;;5089755;28;20869;-88
2022/05/16 05:20:23;;;;;;;4.70;3.60;;;19.80;63.10;;;;;;5105454;28;20201;-88
2022/05/16 05:22:49;;;;;;;4.70;4.17;;;19.80;62.80;;;;;;5094844;28;20680;-88
2022/05/16 05:25:18;;;;;;;8.88;5.25;;;19.90;62.90;;;;;;5089372;28;20180;-88
2022/05/16 05:27:46;;;;;;;11.73;4.20;;;20.00;62.80;;;;;;5064710;28;20287;-89
2022/05/16 05:30:19;;;;;;;6.30;3.87;;;20.00;62.60;;;;;;5092102;28;20449;-90
2022/05/16 05:32:46;;;;;;;5.70;3.90;;;20.10;62.10;;;;;;5083986;28;20428;-88
2022/05/16 05:35:12;;;;;;;3.93;3.50;;;20.20;61.80;;;;;;5087017;28;20995;-90
2022/05/16 05:37:38;;;;;;;4.50;3.47;;;20.30;61.40;;;;;;5087520;28;20537;-89
2022/05/16 05:40:16;;;;;;;4.73;3.87;;;20.40;60.60;;;;;;5089713;28;20480;-89
2022/05/16 05:42:42;;;;;;;4.57;3.33;;;20.80;57.60;;;;;;5086999;28;20169;-89
2022/05/16 05:45:09;;;;;;;4.40;3.93;;;20.80;56.60;;;;;;5083975;28;20409;-89
2022/05/16 05:47:35;;;;;;;6.23;3.80;;;20.90;56.40;;;;;;5096122;28;20433;-89
2022/05/16 05:50:02;;;;;;;4.47;2.97;;;20.90;56.90;;;;;;5085845;28;20568;-89
2022/05/16 05:52:32;;;;;;;8.27;3.80;;;20.80;56.80;;;;;;5101302;28;20420;-89
2022/05/16 05:54:57;;;;;;;6.00;3.30;;;20.80;58.00;;;;;;5086509;28;20768;-90
2022/05/16 05:57:27;;;;;;;5.40;3.40;;;20.70;59.10;;;;;;5094742;28;20436;-88
2022/05/16 05:59:54;;;;;;;5.23;3.47;;;20.70;59.20;;;;;;5077292;28;20806;-89
2022/05/16 06:02:19;;;;;;;13.13;5.60;;;20.70;58.90;;;;;;5111286;28;20483;-90
2022/05/16 06:04:45;;;;;;;6.50;3.30;;;20.80;57.90;;;;;;5102805;28;20408;-90
2022/05/16 06:07:11;;;;;;;6.67;4.00;;;21.10;57.00;;;;;;5092896;28;20374;-90
2022/05/16 06:09:37;;;;;;;6.30;3.17;;;21.30;56.30;;;;;;5086782;28;20418;-89
2022/05/16 06:12:05;;;;;;;14.13;4.60;;;21.60;56.20;;;;;;5075187;28;21523;-89
2022/05/16 06:14:53;;;;;;;5.67;3.17;;;22.30;54.70;;;;;;5083093;28;20206;-89
2022/05/16 06:17:20;;;;;;;9.27;3.40;;;23.20;52.80;;;;;;5109786;28;20503;-91
2022/05/16 06:19:46;;;;;;;7.07;3.00;;;23.80;50.00;;;;;;5082936;28;20552;-89
2022/05/16 06:22:13;;;;;;;7.03;4.90;;;24.00;48.90;;;;;;5081870;28;20551;-89
2022/05/16 06:27:23;;;;;;;12.03;3.30;;;24.10;48.30;;;;;;5096565;28;20426;-87
2022/05/16 06:29:49;;;;;;;7.97;3.80;;;23.90;48.40;;;;;;5096293;28;20410;-88
2022/05/16 06:32:15;;;;;;;8.10;4.30;;;24.00;49.40;;;;;;5077550;28;20188;-88
2022/05/16 06:34:40;;;;;;;6.10;3.00;;;24.30;49.40;;;;;;5078647;28;20422;-86
2022/05/16 06:37:06;;;;;;;5.70;3.77;;;24.90;48.50;;;;;;5081691;28;20461;-86
2022/05/16 06:39:32;;;;;;;5.43;3.17;;;25.50;46.90;;;;;;5083339;28;20211;-86
2022/05/16 06:41:58;;;;;;;6.20;3.70;;;26.00;46.00;;;;;;5085729;28;20183;-86
2022/05/16 06:44:23;;;;;;;8.97;3.87;;;26.40;42.80;;;;;;5091368;28;20629;-86
2022/05/16 06:46:49;;;;;;;6.50;3.20;;;26.80;41.90;;;;;;5092532;28;20188;-86
2022/05/16 06:49:15;;;;;;;7.10;3.60;;;27.00;41.70;;;;;;5094735;28;20180;-87
2022/05/16 06:51:41;;;;;;;7.93;3.67;;;27.30;42.20;;;;;;5077440;28;20185;-89
2022/05/16 06:54:07;;;;;;;3.73;3.23;;;27.70;42.10;;;;;;5082655;28;20173;-88
2022/05/16 06:56:33;;;;;;;7.03;3.43;;;27.90;41.10;;;;;;5097375;28;20216;-86
2022/05/16 06:58:59;;;;;;;9.67;3.80;;;28.10;40.70;;;;;;5082306;28;20485;-86
2022/05/16 07:01:24;;;;;;;8.20;2.93;;;28.30;39.70;;;;;;5072097;28;20426;-86
2022/05/16 07:03:50;;;;;;;6.20;3.10;;;28.20;40.30;;;;;;5073173;28;20185;-86
2022/05/16 07:06:16;;;;;;;6.80;2.90;;;28.10;40.40;;;;;;5073283;28;20200;-87
2022/05/16 07:08:42;;;;;;;7.80;2.50;;;27.90;40.70;;;;;;5065610;28;20414;-86
2022/05/16 07:11:09;;;;;;;2.47;2.27;;;28.20;40.20;;;;;;5060377;28;20423;-87
2022/05/16 07:13:35;;;;;;;4.60;2.50;;;28.00;41.30;;;;;;5081130;28;20204;-87
2022/05/16 07:16:02;;;;;;;5.00;2.83;;;28.10;41.50;;;;;;5063286;28;20431;-87
2022/05/16 07:18:28;;;;;;;3.93;2.67;;;28.00;41.60;;;;;;5060903;28;20426;-86
2022/05/16 07:20:57;;;;;;;10.10;3.23;;;28.10;40.90;;;;;;5061221;28;20418;-85
2022/05/16 07:23:23;;;;;;;8.13;2.60;;;27.90;41.40;;;;;;5078969;28;20748;-86
2022/05/16 07:28:35;;;;;;;5.60;2.57;;;27.20;43.40;;;;;;5037319;28;20414;-86
2022/05/16 07:31:02;;;;;;;5.40;2.30;;;26.80;43.90;;;;;;5060689;28;20418;-86
2022/05/16 07:33:28;;;;;;;4.80;2.30;;;26.60;45.10;;;;;;5059601;28;20517;-86
2022/05/16 07:35:55;;;;;;;3.67;2.50;;;26.40;46.50;;;;;;5059317;28;20960;-86
2022/05/16 07:38:22;;;;;;;5.13;2.47;;;26.50;45.10;;;;;;5058771;28;20462;-87
2022/05/16 07:40:49;;;;;;;7.60;2.27;;;26.40;45.80;;;;;;5063411;28;20514;-86
2022/05/16 07:43:17;;;;;;;2.67;2.13;;;26.50;45.60;;;;;;5058784;28;20513;-86
2022/05/16 07:45:43;;;;;;;2.63;1.90;;;26.50;44.90;;;;;;5058729;28;20418;-86
2022/05/16 07:48:09;;;;;;;3.57;2.67;;;26.30;45.20;;;;;;5058607;28;20438;-87
2022/05/16 07:50:36;;;;;;;6.43;3.17;;;26.10;46.80;;;;;;5058885;28;20426;-85
2022/05/16 07:53:04;;;;;;;5.47;2.40;;;25.60;47.90;;;;;;5058915;28;20429;-87
2022/05/16 07:55:31;;;;;;;5.67;2.43;;;25.30;49.50;;;;;;5058839;28;20429;-87
2022/05/16 07:57:57;;;;;;;7.10;3.37;;;25.20;50.30;;;;;;5058761;28;20453;-87
2022/05/16 08:00:24;;;;;;;5.10;3.03;;;24.90;50.80;;;;;;5059469;28;20491;-87
2022/05/16 08:02:51;;;;;;;9.53;3.20;;;24.80;51.50;;;;;;5061929;28;20421;-87
2022/05/16 08:05:18;;;;;;;3.40;2.80;;;25.00;51.10;;;;;;5060115;28;20416;-87
2022/05/16 08:10:29;;;;;;;4.27;2.57;;;24.80;51.90;;;;;;5080229;28;20427;-89
2022/05/16 08:12:56;;;;;;;5.40;2.80;;;24.90;51.90;;;;;;5085138;28;20424;-87
2022/05/16 08:15:21;;;;;;;3.93;2.17;;;24.80;52.30;;;;;;5062127;28;20540;-87
2022/05/16 08:17:47;;;;;;;6.20;2.60;;;24.90;52.40;;;;;;5059346;28;20469;-87
2022/05/16 08:20:13;;;;;;;7.23;3.00;;;25.10;51.70;;;;;;5061053;28;20210;-87
2022/05/16 08:22:39;;;;;;;5.67;2.57;;;25.20;52.00;;;;;;5081162;28;20229;-87
2022/05/16 08:25:05;;;;;;;3.33;3.00;;;25.10;51.70;;;;;;5061059;28;20823;-87
2022/05/16 08:27:31;;;;;;;7.30;3.27;;;25.30;50.80;;;;;;5060255;28;20228;-87
2022/05/16 08:29:57;;;;;;;3.87;3.03;;;25.50;50.70;;;;;;5076576;28;20425;-87
2022/05/16 08:32:25;;;;;;;2.90;2.60;;;25.70;49.20;;;;;;5063103;28;20272;-87
2022/05/16 08:34:56;;;;;;;7.50;3.33;;;25.70;50.00;;;;;;5059808;28;20199;-87
2022/05/16 08:40:54;;;;;;;4.70;3.30;;;25.70;50.40;;;;;;5077099;28;20488;-87
2022/05/16 08:43:38;;;;;;;4.23;2.67;;;25.60;50.70;;;;;;5057805;28;20868;-87
2022/05/16 08:46:14;;;;;;;6.97;3.10;;;25.50;51.10;;;;;;5076060;28;20455;-87
2022/05/16 08:48:47;;;;;;;7.37;3.83;;;25.50;50.60;;;;;;5058673;28;20692;-87
2022/05/16 08:51:30;;;;;;;7.03;3.20;;;25.30;51.60;;;;;;5058264;28;20471;-87
2022/05/16 08:54:10;;;;;;;5.13;3.20;;;25.20;52.30;;;;;;5074679;28;20777;-87
2022/05/16 08:56:42;;;;;;;6.17;3.43;;;24.90;52.80;;;;;;5076196;28;20448;-88
2022/05/16 08:59:11;;;;;;;7.97;3.47;;;25.10;52.60;;;;;;5059297;28;20460;-87
2022/05/16 09:01:50;;;;;;;7.57;3.23;;;25.00;53.00;;;;;;5060024;28;20443;-88
2022/05/16 09:04:26;;;;;;;6.17;3.80;;;25.00;53.40;;;;;;5079128;28;20406;-87
2022/05/16 09:07:04;;;;;;;9.57;3.60;;;25.20;53.40;;;;;;5064254;28;20476;-88
2022/05/16 09:10:00;;;;;;;10.00;3.60;;;25.30;52.40;;;;;;5066185;28;20413;-90
2022/05/16 09:12:43;;;;;;;9.93;4.73;;;25.90;49.80;;;;;;5063468;28;20425;-88
2022/05/16 09:15:30;;;;;;;5.17;3.03;;;25.80;50.40;;;;;;5060075;28;20414;-90
2022/05/16 09:18:01;;;;;;;3.93;2.60;;;25.70;50.40;;;;;;5059545;28;20968;-90
2022/05/16 09:20:30;;;;;;;10.30;3.20;;;25.80;50.50;;;;;;5059321;28;20473;-90
2022/05/16 09:23:24;;;;;;;9.50;3.57;;;26.00;50.70;;;;;;5074865;28;20429;-90
2022/05/16 09:25:59;;;;;;;8.60;4.23;;;26.20;49.90;;;;;;5079562;28;20464;-89
2022/05/16 09:28:34;;;;;;;4.17;2.80;;;26.10;49.70;;;;;;5069397;28;20419;-88
2022/05/16 09:31:30;;;;;;;12.07;4.07;;;26.10;50.30;;;;;;5058290;28;20409;-88
2022/05/16 09:33:58;;;;;;;8.43;4.57;;;26.40;49.70;;;;;;5075118;28;20411;-88
2022/05/16 09:36:31;;;;;;;11.00;3.60;;;26.60;49.70;;;;;;5077238;28;20426;-88
2022/05/16 09:38:57;;;;;;;5.13;3.20;;;26.70;49.50;;;;;;5059334;28;20450;-88
2022/05/16 09:41:25;;;;;;;4.83;4.17;;;26.50;49.90;;;;;;5077852;28;20441;-87
2022/05/16 09:43:58;;;;;;;7.50;4.20;;;26.40;50.10;;;;;;5078699;28;20719;-88
2022/05/16 09:46:34;;;;;;;7.40;4.20;;;26.10;51.10;;;;;;5062856;28;20465;-87
2022/05/16 09:49:24;;;;;;;6.50;5.03;;;26.10;51.00;;;;;;5084318;28;20421;-88
2022/05/16 09:51:56;;;;;;;6.87;4.40;;;25.80;51.60;;;;;;5059997;28;20422;-88
2022/05/16 09:54:25;;;;;;;6.77;4.57;;;25.50;52.40;;;;;;5063058;28;20403;-88
2022/05/16 09:57:16;;;;;;;14.00;5.23;;;25.80;52.10;;;;;;5057349;28;20441;-88
2022/05/16 10:00:08;;;;;;;9.63;5.23;;;25.80;51.80;;;;;;5057413;28;20493;-87
2022/05/16 10:02:37;;;;;;;8.33;5.10;;;25.70;52.70;;;;;;5056753;28;20421;-87
2022/05/16 10:05:27;;;;;;;7.23;5.33;;;25.50;52.90;;;;;;5074347;28;20423;-88
2022/05/16 10:08:03;;;;;;;12.33;5.17;;;25.40;53.50;;;;;;5077457;28;20462;-88
2022/05/16 10:10:36;;;;;;;12.13;6.10;;;25.30;53.90;;;;;;5086216;28;20398;-88
2022/05/16 10:13:03;;;;;;;11.70;6.53;;;25.30;54.60;;;;;;5064466;28;20408;-88
2022/05/16 10:15:31;;;;;;;11.60;5.83;;;25.30;53.70;;;;;;5058326;28;20798;-88
2022/05/16 10:17:59;;;;;;;9.60;6.30;;;25.10;54.20;;;;;;5057041;28;21051;-89
2022/05/16 10:20:33;;;;;;;10.83;6.53;;;25.20;54.10;;;;;;5077455;28;20479;-89
2022/05/16 10:23:03;;;;;;;10.30;7.23;;;25.00;55.50;;;;;;5060954;28;20419;-88
2022/05/16 10:25:35;;;;;;;11.60;6.80;;;24.90;55.00;;;;;;5079608;28;20407;-88
2022/05/16 10:28:03;;;;;;;10.00;7.40;;;24.90;54.90;;;;;;5061521;28;20446;-88
2022/05/16 10:30:32;;;;;;;10.23;6.90;;;24.70;55.20;;;;;;5061207;28;20515;-89
2022/05/16 10:36:07;;;;;;;13.50;6.70;;;24.60;55.10;;;;;;5080309;28;20574;-87
2022/05/16 10:39:02;;;;;;;12.83;7.90;;;24.60;55.00;;;;;;5060839;28;20411;-88
2022/05/16 10:41:49;;;;;;;10.17;7.20;;;24.40;56.10;;;;;;5077808;28;20415;-88
2022/05/16 10:44:43;;;;;;;12.80;7.50;;;24.30;56.70;;;;;;5060864;28;20835;-88
2022/05/16 10:47:27;;;;;;;9.20;7.57;;;24.10;56.80;;;;;;5061238;28;20437;-88
2022/05/16 10:50:02;;;;;;;11.23;7.50;;;24.20;57.00;;;;;;5061027;28;20919;-89
2022/05/16 10:52:56;;;;;;;15.83;8.33;;;24.10;57.40;;;;;;5060649;28;20436;-87
2022/05/16 10:55:23;;;;;;;10.00;7.03;;;23.90;57.60;;;;;;5079511;28;20829;-88
2022/05/16 10:57:55;;;;;;;14.57;6.97;;;23.90;57.60;;;;;;5059731;28;20534;-88
2022/05/16 11:00:33;;;;;;;9.63;7.47;;;24.10;57.40;;;;;;5061118;28;20451;-88
2022/05/16 11:03:29;;;;;;;6.43;5.47;;;24.20;57.00;;;;;;5060317;28;20441;-88
2022/05/16 11:06:34;;;;;;;13.00;8.50;;;24.60;56.10;;;;;;5063018;28;20408;-88
2022/05/16 11:09:03;;;;;;;16.47;8.40;;;24.80;55.40;;;;;;5079933;28;20433;-88
2022/05/16 11:11:34;;;;;;;7.33;6.63;;;24.90;55.20;;;;;;5082404;28;20453;-88
2022/05/16 11:14:24;;;;;;;12.23;9.50;;;25.10;55.00;;;;;;5069346;28;20391;-88
2022/05/16 11:16:54;;;;;;;11.50;9.40;;;25.10;54.60;;;;;;5068608;28;20465;-88
2022/05/16 11:19:26;;;;;;;12.50;9.13;;;24.90;54.90;;;;;;5060424;28;20994;-88
2022/05/16 11:22:00;;;;;;;13.20;9.67;;;24.80;55.10;;;;;;5064801;28;20415;-88
2022/05/16 11:24:32;;;;;;;14.40;8.63;;;24.80;55.50;;;;;;5100131;28;20418;-88
2022/05/16 11:27:07;;;;;;;12.90;10.10;;;24.60;55.20;;;;;;5083791;28;20932;-88
2022/05/16 11:29:36;;;;;;;16.20;9.47;;;24.40;55.30;;;;;;5103324;28;20423;-89
2022/05/16 11:32:47;;;;;;;11.33;7.90;;;24.20;55.70;;;;;;5084698;28;20945;-88
2022/05/16 11:35:18;;;;;;;8.37;7.57;;;24.10;56.30;;;;;;5037871;28;20414;-88
2022/05/16 11:38:05;;;;;;;16.07;7.83;;;24.30;55.60;;;;;;5093339;28;20933;-88
2022/05/16 11:40:49;;;;;;;12.80;9.43;;;24.30;54.70;;;;;;5082488;28;20454;-88
2022/05/16 11:43:31;;;;;;;18.17;7.73;;;24.40;53.80;;;;;;5082824;28;20402;-89
2022/05/16 11:46:27;;;;;;;12.47;7.30;;;24.50;54.00;;;;;;5081578;28;20538;-88
2022/05/16 11:49:27;;;;;;;9.17;6.30;;;24.70;53.10;;;;;;5109062;28;20406;-90
2022/05/16 11:52:15;;;;;;;7.77;5.97;;;24.80;53.10;;;;;;5101147;28;20477;-88
2022/05/16 11:54:57;;;;;;;13.70;5.80;;;24.80;52.30;;;;;;5092816;28;20437;-88
2022/05/16 12:03:05;;;;;;;10.50;5.43;;;24.80;51.30;;;;;;5097509;28;20377;-88
2022/05/16 12:05:48;;;;;;;10.70;4.97;;;24.70;51.80;;;;;;5097498;28;20408;-88
2022/05/16 12:08:56;;;;;;;12.43;5.30;;;24.90;51.60;;;;;;5081361;28;20459;-89
2022/05/16 12:11:27;;;;;;;11.87;4.63;;;24.80;51.20;;;;;;5027086;28;20466;-88
2022/05/16 12:14:20;;;;;;;8.27;4.40;;;24.90;51.30;;;;;;5079254;28;20506;-88
2022/05/16 12:17:16;;;;;;;9.70;4.70;;;25.00;50.10;;;;;;5097419;28;20448;-88
2022/05/16 12:19:46;;;;;;;8.17;5.00;;;25.20;49.00;;;;;;5068240;28;20471;-88
2022/05/16 12:22:14;;;;;;;9.60;4.90;;;25.00;49.20;;;;;;5082628;28;20408;-88
2022/05/16 12:25:01;;;;;;;12.93;5.20;;;24.80;49.50;;;;;;5080965;28;20417;-88
2022/05/16 12:27:42;;;;;;;9.23;4.33;;;25.00;49.50;;;;;;5081094;28;20451;-88
2022/05/16 12:30:20;;;;;;;11.80;4.50;;;25.20;49.00;;;;;;5082090;28;20413;-88
2022/05/16 12:32:56;;;;;;;16.60;4.70;;;25.30;49.30;;;;;;5103550;28;20424;-88
2022/05/16 12:35:28;;;;;;;11.83;4.10;;;25.20;48.60;;;;;;5083583;28;20473;-88
2022/05/16 12:37:55;;;;;;;8.33;4.23;;;25.30;48.80;;;;;;5102067;28;20463;-88
2022/05/16 12:41:01;;;;;;;12.70;5.30;;;25.40;48.60;;;;;;5083981;28;20465;-88
2022/05/16 12:43:45;;;;;;;7.57;3.53;;;25.80;46.60;;;;;;5086597;28;20466;-88
2022/05/16 12:47:01;;;;;;;11.53;3.87;;;25.90;46.90;;;;;;5080291;28;20421;-88
2022/05/16 12:49:37;;;;;;;6.70;3.93;;;26.00;47.20;;;;;;5054633;28;20429;-88
2022/05/16 12:52:41;;;;;;;12.53;4.20;;;26.10;46.30;;;;;;5080388;28;20425;-88
2022/05/16 12:55:10;;;;;;;10.00;4.00;;;26.20;45.60;;;;;;5029711;28;20452;-88
2022/05/16 12:57:57;;;;;;;11.97;4.13;;;26.00;46.40;;;;;;5081432;28;20441;-88
2022/05/16 13:00:41;;;;;;;15.23;3.80;;;25.80;46.30;;;;;;5082385;28;20456;-88
2022/05/16 13:03:51;;;;;;;12.80;3.67;;;25.80;46.40;;;;;;5083196;28;20414;-89
2022/05/16 13:06:43;;;;;;;7.90;3.10;;;25.70;46.30;;;;;;5037050;28;20434;-89
2022/05/16 13:09:42;;;;;;;8.53;3.73;;;25.50;46.90;;;;;;5024223;28;20435;-89
2022/05/16 13:12:32;;;;;;;13.00;3.17;;;25.20;47.10;;;;;;5076045;28;20420;-89
2022/05/16 13:15:07;;;;;;;8.80;2.90;;;25.00;48.00;;;;;;5100807;28;20432;-89
2022/05/16 13:17:40;;;;;;;6.07;2.93;;;25.10;47.40;;;;;;5104101;28;20473;-89
2022/05/16 13:20:11;;;;;;;9.90;3.13;;;25.00;47.30;;;;;;5099784;28;20454;-88
2022/05/16 13:22:42;;;;;;;6.00;2.80;;;24.90;47.20;;;;;;5081899;28;20446;-88
2022/05/16 13:25:08;;;;;;;14.33;4.07;;;25.00;47.30;;;;;;5100392;28;20431;-89
2022/05/16 13:30:23;;;;;;;10.90;2.90;;;25.30;47.10;;;;;;5099134;28;20410;-89
2022/05/16 13:32:49;;;;;;;11.47;2.80;;;25.10;47.70;;;;;;5097189;28;20452;-88
2022/05/16 13:35:37;;;;;;;6.10;2.93;;;25.30;47.50;;;;;;5097128;28;20408;-89
2022/05/16 13:38:08;;;;;;;7.47;3.10;;;25.30;46.90;;;;;;5078215;28;20449;-89
2022/05/16 13:40:41;;;;;;;8.73;2.40;;;25.30;46.20;;;;;;5096448;28;20464;-88
2022/05/16 13:43:15;;;;;;;10.30;3.03;;;25.50;45.30;;;;;;5079761;28;20438;-89
2022/05/16 13:45:41;;;;;;;7.93;2.73;;;25.50;45.10;;;;;;5078534;28;20452;-89